Time;durP1;ratioP1;P1;durP2;ratioP2;P2;SDS_P1;SDS_P2;PMS_P1;PMS_P2;Temp;Humidity;BMP_temperature;BMP_pressure;BME280_temperature;BME280_humidity;BME280_pressure;Samples;Min_cycle;Max_cycle;Signal;HPM_P1;HPM_P2
2022/04/27 00:00:28;;;;;;;13.63;8.90;;;;;;;5.76;75.17;102171.53;4985499;28;20144;-85
2022/04/27 00:02:54;;;;;;;11.63;10.00;;;;;;;5.82;75.20;102176.78;4990707;28;20105;-85
2022/04/27 00:05:20;;;;;;;12.82;9.57;;;;;;;5.78;75.45;102175.06;4982116;28;20034;-85
2022/04/27 00:07:45;;;;;;;12.98;9.50;;;;;;;5.70;75.92;102171.63;4983122;28;20456;-85
2022/04/27 00:10:10;;;;;;;13.27;9.57;;;;;;;5.69;76.01;102169.88;4978582;28;20041;-85
2022/04/27 00:12:37;;;;;;;13.40;9.52;;;;;;;5.65;75.84;102166.38;4978772;28;20038;-85
2022/04/27 00:15:04;;;;;;;12.77;9.70;;;;;;;5.61;75.72;102167.31;4982764;28;20038;-86
2022/04/27 00:17:29;;;;;;;13.27;9.70;;;;;;;5.60;76.10;102168.19;4988854;28;20038;-85
2022/04/27 00:19:55;;;;;;;14.32;9.55;;;;;;;5.62;76.01;102173.47;4985302;28;20030;-86
2022/04/27 00:22:20;;;;;;;15.35;9.93;;;;;;;5.60;76.21;102164.66;4987750;28;20018;-86
2022/04/27 00:24:45;;;;;;;13.35;10.35;;;;;;;5.52;76.07;102156.81;4983561;28;20053;-85
2022/04/27 00:27:10;;;;;;;11.45;9.85;;;;;;;5.49;76.61;102160.34;4984526;28;20034;-85
2022/04/27 00:29:36;;;;;;;16.20;9.68;;;;;;;5.43;76.43;102155.16;4976255;28;20373;-86
2022/04/27 00:32:01;;;;;;;11.48;9.50;;;;;;;5.48;76.60;102163.03;4959337;28;20039;-85
2022/04/27 00:34:27;;;;;;;17.00;10.10;;;;;;;5.44;76.60;102164.81;4966656;28;20054;-85
2022/04/27 00:36:52;;;;;;;12.10;9.18;;;;;;;5.37;76.99;102157.81;4968867;28;20030;-85
2022/04/27 00:39:17;;;;;;;12.80;9.90;;;;;;;5.36;76.52;102169.28;4987394;28;20026;-85
2022/04/27 00:41:58;;;;;;;12.98;9.82;;;;;;;5.32;77.07;102164.91;4975315;28;20030;-85
2022/04/27 00:44:31;;;;;;;17.00;10.52;;;;;;;5.29;77.22;102159.66;4987265;28;20487;-85
2022/04/27 00:46:57;;;;;;;13.18;9.77;;;;;;;5.27;77.53;102166.72;4982881;28;20113;-85
2022/04/27 00:49:23;;;;;;;13.77;9.82;;;;;;;5.24;77.87;102174.66;4987642;28;20052;-85
2022/04/27 00:51:49;;;;;;;14.55;10.15;;;;;;;5.20;77.71;102163.25;4989342;28;20026;-85
2022/04/27 00:54:15;;;;;;;13.10;10.20;;;;;;;5.21;77.93;102166.75;4981846;28;20038;-85
2022/04/27 00:56:42;;;;;;;12.40;9.48;;;;;;;5.16;77.79;102171.19;4983295;28;20022;-85
2022/04/27 00:59:08;;;;;;;13.93;9.90;;;;;;;5.07;78.23;102168.63;4985033;28;20023;-85
2022/04/27 01:01:34;;;;;;;13.52;10.43;;;;;;;5.03;78.28;102178.31;4983713;28;20034;-85
2022/04/27 01:03:59;;;;;;;12.55;9.43;;;;;;;4.90;78.69;102172.25;4981454;28;21497;-84
2022/04/27 01:06:25;;;;;;;15.95;9.75;;;;;;;4.89;78.63;102174.88;4987864;28;20113;-85
2022/04/27 01:08:50;;;;;;;11.63;9.80;;;;;;;4.82;79.01;102178.47;4977719;28;20329;-85
2022/04/27 01:11:16;;;;;;;13.77;10.23;;;;;;;4.75;79.35;102167.06;4984217;28;20395;-85
2022/04/27 01:13:41;;;;;;;13.05;10.18;;;;;;;4.69;79.42;102173.25;4982395;28;20034;-85
2022/04/27 01:16:07;;;;;;;17.83;10.98;;;;;;;4.75;79.48;102180.25;4976000;28;20030;-85
2022/04/27 01:18:33;;;;;;;16.58;10.43;;;;;;;4.73;79.35;102172.34;4985777;28;20034;-85
2022/04/27 01:20:59;;;;;;;17.15;10.70;;;;;;;4.78;79.45;102187.28;4980204;28;20092;-84
2022/04/27 01:23:24;;;;;;;15.23;10.50;;;;;;;4.74;79.41;102173.22;4987696;28;20502;-85
2022/04/27 01:25:51;;;;;;;14.98;11.27;;;;;;;4.77;79.98;102186.41;4988996;28;20379;-85
2022/04/27 01:28:18;;;;;;;13.68;9.90;;;;;;;4.74;80.18;102186.41;4984343;28;20050;-85
2022/04/27 01:30:44;;;;;;;16.48;10.65;;;;;;;4.73;79.86;102189.94;4987659;28;20037;-85
2022/04/27 01:33:11;;;;;;;14.48;11.40;;;;;;;4.71;80.28;102186.41;4989184;28;20266;-85
2022/04/27 01:35:37;;;;;;;15.60;11.38;;;;;;;4.63;80.38;102188.22;4976349;28;20022;-85
2022/04/27 01:38:03;;;;;;;15.85;11.38;;;;;;;4.65;80.55;102191.72;4987332;28;20473;-84
2022/04/27 01:40:29;;;;;;;16.08;11.15;;;;;;;4.67;80.48;102190.81;4984656;28;20045;-84
2022/04/27 01:42:54;;;;;;;16.45;11.77;;;;;;;4.66;80.21;102188.22;4982196;28;20038;-84
2022/04/27 01:45:19;;;;;;;14.63;11.18;;;;;;;4.63;80.57;102189.09;4985631;28;20037;-85
2022/04/27 01:47:45;;;;;;;16.85;12.15;;;;;;;4.59;80.86;102202.28;4986844;28;20577;-85
2022/04/27 01:50:10;;;;;;;16.33;11.45;;;;;;;4.56;80.82;102200.56;4967328;28;20050;-85
2022/04/27 01:55:22;;;;;;;16.05;12.00;;;;;;;4.56;81.19;102205.84;4985471;28;20049;-85
2022/04/27 01:57:48;;;;;;;15.88;11.27;;;;;;;4.57;80.72;102204.06;4980980;28;20034;-84
2022/04/27 02:00:14;;;;;;;16.08;11.20;;;;;;;4.50;80.84;102198.81;4982406;28;20037;-85
2022/04/27 02:02:40;;;;;;;17.20;11.57;;;;;;;4.56;80.71;102212.88;4979115;28;20496;-85
2022/04/27 02:05:05;;;;;;;17.67;12.35;;;;;;;4.44;81.20;102197.97;4985206;28;20046;-86
2022/04/27 02:07:31;;;;;;;18.65;12.43;;;;;;;4.43;81.57;102199.75;4987220;28;20399;-85
2022/04/27 02:09:56;;;;;;;19.80;12.13;;;;;;;4.38;81.77;102206.75;4978322;28;20391;-85
2022/04/27 02:12:21;;;;;;;16.35;12.45;;;;;;;4.35;81.88;102204.16;4981803;28;20050;-85
2022/04/27 02:14:46;;;;;;;17.73;12.65;;;;;;;4.34;82.05;102212.06;4987380;28;20034;-85
2022/04/27 02:17:12;;;;;;;16.33;11.73;;;;;;;4.34;82.15;102218.19;4987339;28;20049;-85
2022/04/27 02:19:37;;;;;;;17.33;12.40;;;;;;;4.32;82.14;102208.56;4978752;28;20039;-85
2022/04/27 02:22:03;;;;;;;18.02;13.50;;;;;;;4.20;82.79;102210.34;4988958;28;20041;-86
2022/04/27 02:24:29;;;;;;;17.70;12.98;;;;;;;4.22;82.82;102212.97;4986553;28;20030;-85
2022/04/27 02:26:54;;;;;;;18.80;13.55;;;;;;;4.13;83.31;102211.22;4985020;28;20157;-85
2022/04/27 02:29:21;;;;;;;18.58;13.02;;;;;;;4.12;83.39;102224.41;4984090;28;20040;-85
2022/04/27 02:31:46;;;;;;;20.95;13.10;;;;;;;4.09;83.29;102220.03;4984560;28;20031;-86
2022/04/27 02:34:12;;;;;;;18.33;13.13;;;;;;;4.08;82.96;102220.91;4964784;28;20346;-85
2022/04/27 02:36:37;;;;;;;17.60;12.95;;;;;;;4.07;82.94;102216.53;4967342;28;20058;-85
2022/04/27 02:39:02;;;;;;;20.67;12.85;;;;;;;4.06;82.76;102220.06;4984589;28;20451;-85
2022/04/27 02:41:28;;;;;;;17.75;12.35;;;;;;;4.05;82.57;102220.03;4977565;28;20026;-85
2022/04/27 02:43:54;;;;;;;19.52;13.77;;;;;;;4.06;82.65;102221.81;4973348;28;20030;-85
2022/04/27 02:46:19;;;;;;;18.77;13.65;;;;;;;4.08;82.50;102231.44;4986990;28;20023;-85
2022/04/27 02:54:12;;;;;;;19.05;13.82;;;;;;;3.97;83.44;102242.03;4972803;28;20052;-85
2022/04/27 02:56:37;;;;;;;20.70;13.70;;;;;;;3.91;83.17;102223.56;4964616;28;20038;-85
2022/04/27 02:59:03;;;;;;;18.80;13.05;;;;;;;3.95;82.94;102235.88;4978939;28;20038;-86
2022/04/27 03:01:28;;;;;;;18.45;13.27;;;;;;;3.93;83.53;102231.47;4987632;28;20578;-85
2022/04/27 03:03:54;;;;;;;21.13;14.02;;;;;;;3.92;82.58;102237.63;4985492;28;20066;-85
2022/04/27 03:06:19;;;;;;;22.92;13.57;;;;;;;3.85;82.92;102235.88;4984584;28;20030;-85
2022/04/27 03:08:44;;;;;;;18.52;13.40;;;;;;;3.83;82.79;102237.63;4973826;28;20054;-85
2022/04/27 03:11:09;;;;;;;19.30;14.02;;;;;;;3.78;83.01;102242.91;4970724;28;20033;-85
2022/04/27 03:13:35;;;;;;;18.92;13.07;;;;;;;3.79;82.84;102238.50;4984977;28;20035;-85
2022/04/27 03:16:00;;;;;;;21.75;14.25;;;;;;;3.76;83.30;102252.53;4966460;28;20492;-85
2022/04/27 03:18:25;;;;;;;19.88;14.57;;;;;;;3.78;83.33;102245.53;4983429;28;20053;-85
2022/04/27 03:20:51;;;;;;;19.83;13.63;;;;;;;3.74;83.11;102239.38;4987610;28;20034;-85
2022/04/27 03:23:17;;;;;;;19.45;13.98;;;;;;;3.74;83.38;102243.78;4986222;28;20057;-85
2022/04/27 03:25:42;;;;;;;22.40;14.30;;;;;;;3.75;83.56;102249.03;4981053;28;20034;-85
2022/04/27 03:28:08;;;;;;;18.70;13.23;;;;;;;3.70;83.49;102250.81;4982717;28;20057;-85
2022/04/27 03:30:33;;;;;;;22.73;14.07;;;;;;;3.68;83.84;102249.06;4984940;28;20038;-85
2022/04/27 03:32:59;;;;;;;25.35;15.65;;;;;;;3.67;84.43;102249.91;4980340;28;20035;-85
2022/04/27 03:35:25;;;;;;;21.58;14.95;;;;;;;3.63;84.65;102250.78;4981515;28;20034;-85
2022/04/27 03:37:50;;;;;;;20.92;15.43;;;;;;;3.61;84.73;102242.91;4985765;28;20034;-85
2022/04/27 03:40:16;;;;;;;25.73;15.13;;;;;;;3.59;84.83;102242.00;4982780;28;20456;-85
2022/04/27 03:42:41;;;;;;;21.55;14.25;;;;;;;3.54;84.08;102242.91;4974067;28;20237;-85
2022/04/27 03:45:06;;;;;;;21.30;15.63;;;;;;;3.52;84.64;102242.91;4964011;28;20370;-85
2022/04/27 03:47:32;;;;;;;20.40;15.10;;;;;;;3.47;84.28;102248.19;4985299;28;20041;-85
2022/04/27 03:50:04;;;;;;;21.95;15.50;;;;;;;3.41;84.40;102245.53;4985590;28;20122;-86
2022/04/27 03:52:29;;;;;;;21.55;14.50;;;;;;;3.40;84.60;102254.31;4982778;28;20088;-85
2022/04/27 03:54:54;;;;;;;23.85;14.82;;;;;;;3.41;84.44;102263.06;4979116;28;20030;-85
2022/04/27 03:57:20;;;;;;;22.52;15.63;;;;;;;3.42;84.96;102265.69;4972840;28;20117;-85
2022/04/27 03:59:45;;;;;;;21.80;15.18;;;;;;;3.36;84.38;102257.81;4974089;28;20118;-85
2022/04/27 04:02:10;;;;;;;22.20;15.45;;;;;;;3.36;84.54;102263.06;4975040;28;20030;-84
2022/04/27 04:04:35;;;;;;;21.15;16.20;;;;;;;3.34;84.96;102266.56;4974502;28;20035;-85
2022/04/27 04:07:02;;;;;;;25.17;16.20;;;;;;;3.32;85.13;102271.81;4974039;28;20045;-85
2022/04/27 04:09:27;;;;;;;25.27;16.35;;;;;;;3.32;85.70;102281.47;4976770;28;20483;-84
2022/04/27 04:11:53;;;;;;;21.42;15.10;;;;;;;3.29;85.59;102270.94;4974050;28;20030;-85
2022/04/27 04:14:18;;;;;;;23.67;15.73;;;;;;;3.25;85.53;102268.28;4974811;28;20469;-85
2022/04/27 04:16:43;;;;;;;22.67;16.80;;;;;;;3.25;85.21;102276.19;4972975;28;20034;-84
2022/04/27 04:19:10;;;;;;;25.60;16.15;;;;;;;3.26;85.59;102285.00;4975277;28;20190;-85
2022/04/27 04:21:35;;;;;;;23.48;16.42;;;;;;;3.19;86.54;102277.94;4976503;28;20030;-85
2022/04/27 04:24:00;;;;;;;29.38;18.00;;;;;;;3.22;86.34;102285.84;4956889;28;20035;-85
2022/04/27 04:29:09;;;;;;;24.88;17.08;;;;;;;3.20;86.39;102293.72;4983946;28;20053;-85
2022/04/27 04:31:35;;;;;;;24.75;16.50;;;;;;;3.17;86.45;102288.44;4985419;28;20468;-84
2022/04/27 04:34:00;;;;;;;21.63;16.27;;;;;;;3.20;87.04;102300.75;4983166;28;20351;-85
2022/04/27 04:36:25;;;;;;;26.65;17.05;;;;;;;3.19;86.93;102293.72;4984756;28;20136;-84
2022/04/27 04:38:50;;;;;;;26.20;16.65;;;;;;;3.11;86.97;102274.41;4990574;28;20480;-84
2022/04/27 04:41:16;;;;;;;21.63;16.38;;;;;;;3.17;86.42;102296.34;4989831;28;20034;-85
2022/04/27 04:43:41;;;;;;;24.30;17.75;;;;;;;3.20;86.59;102293.72;4989215;28;20061;-85
2022/04/27 04:46:07;;;;;;;22.98;17.30;;;;;;;3.19;86.20;102294.59;4986311;28;20030;-85
2022/04/27 04:48:32;;;;;;;23.73;16.20;;;;;;;3.21;86.72;102300.75;4978943;28;20117;-85
2022/04/27 04:50:58;;;;;;;24.95;17.13;;;;;;;3.23;86.71;102300.75;4982914;28;20039;-84
2022/04/27 04:53:23;;;;;;;29.08;17.52;;;;;;;3.24;86.92;102305.13;4990543;28;20114;-85
2022/04/27 04:55:48;;;;;;;27.92;18.13;;;;;;;3.27;87.80;102312.19;4990753;28;20058;-85
2022/04/27 04:58:14;;;;;;;24.58;17.27;;;;;;;3.25;88.02;102309.53;4971443;28;20411;-84
2022/04/27 05:00:39;;;;;;;24.52;17.23;;;;;;;3.31;87.66;102317.44;4980723;28;20034;-84
2022/04/27 05:03:05;;;;;;;25.63;17.42;;;;;;;3.32;87.55;102313.94;4988058;28;20034;-84
2022/04/27 05:05:30;;;;;;;26.17;16.63;;;;;;;3.34;87.77;102316.56;4990236;28;20033;-85
2022/04/27 05:07:55;;;;;;;27.17;17.33;;;;;;;3.32;87.92;102318.31;4988599;28;20133;-85
2022/04/27 05:10:20;;;;;;;26.00;18.15;;;;;;;3.33;88.08;102327.97;4981178;28;20030;-85
2022/04/27 05:12:46;;;;;;;28.17;17.88;;;;;;;3.31;88.53;102320.09;4985942;28;20464;-85
2022/04/27 05:15:12;;;;;;;29.92;19.17;;;;;;;3.34;88.88;102324.44;4984232;28;20029;-85
2022/04/27 05:17:37;;;;;;;28.67;17.83;;;;;;;3.36;88.86;102328.84;4985300;28;20476;-85
2022/04/27 05:20:04;;;;;;;29.00;18.55;;;;;;;3.40;88.76;102325.38;4990033;28;20053;-84
2022/04/27 05:22:34;;;;;;;27.65;18.63;;;;;;;3.43;89.14;102329.78;4987360;28;20027;-85
2022/04/27 05:25:03;;;;;;;26.30;17.65;;;;;;;3.53;88.82;102333.28;4981173;28;20019;-84
2022/04/27 05:27:28;;;;;;;25.80;17.33;;;;;;;3.62;88.81;102343.84;4980973;28;20042;-84
2022/04/27 05:32:42;;;;;;;28.83;18.10;;;;;;;3.87;88.51;102340.34;4987569;28;20416;-84
2022/04/27 05:35:07;;;;;;;27.48;17.73;;;;;;;4.07;88.00;102352.66;4987778;28;20031;-85
2022/04/27 05:37:33;;;;;;;26.98;17.52;;;;;;;4.19;87.87;102348.28;4979567;28;20030;-84
2022/04/27 05:39:58;;;;;;;28.38;18.42;;;;;;;4.32;87.29;102357.03;4990805;28;20026;-85
2022/04/27 05:42:23;;;;;;;28.63;18.45;;;;;;;4.41;86.70;102345.63;4980596;28;20378;-85
2022/04/27 05:44:48;;;;;;;26.20;18.02;;;;;;;4.64;86.32;102364.00;4970935;28;20038;-85
2022/04/27 05:47:13;;;;;;;25.50;17.95;;;;;;;4.75;85.82;102356.97;4963932;28;20046;-86
2022/04/27 05:49:39;;;;;;;25.65;17.83;;;;;;;4.84;85.30;102356.94;4988727;28;20026;-86
2022/04/27 05:52:04;;;;;;;26.67;17.42;;;;;;;4.97;84.64;102365.69;4986597;28;20037;-85
2022/04/27 05:54:29;;;;;;;24.67;16.60;;;;;;;5.07;83.98;102363.91;4967938;28;20082;-86
2022/04/27 05:56:55;;;;;;;26.92;16.17;;;;;;;5.24;83.47;102357.69;4984035;28;20111;-87
2022/04/27 05:59:21;;;;;;;23.92;16.40;;;;;;;5.35;83.21;102360.28;4962021;28;20042;-84
2022/04/27 06:01:46;;;;;;;22.83;15.93;;;;;;;5.53;83.14;102364.56;4982708;28;20022;-84
2022/04/27 06:04:11;;;;;;;23.38;16.23;;;;;;;5.67;82.13;102367.13;4979942;28;20609;-84
2022/04/27 06:06:36;;;;;;;22.33;16.00;;;;;;;5.78;81.11;102373.22;4989243;28;20030;-85
2022/04/27 06:09:03;;;;;;;21.42;15.68;;;;;;;5.84;80.07;102370.53;4984658;28;20445;-85
2022/04/27 06:11:28;;;;;;;24.23;16.60;;;;;;;5.90;79.79;102378.44;4979213;28;20025;-84
2022/04/27 06:13:53;;;;;;;20.63;15.35;;;;;;;5.90;79.86;102361.69;4965661;28;20034;-85
2022/04/27 06:16:19;;;;;;;24.73;15.82;;;;;;;6.06;79.38;102376.59;4962372;28;20033;-85
2022/04/27 06:18:45;;;;;;;24.85;17.08;;;;;;;6.20;78.82;102380.00;4982437;28;20026;-86
2022/04/27 06:21:11;;;;;;;24.00;16.88;;;;;;;6.36;78.21;102383.38;4981429;28;20049;-86
2022/04/27 06:23:38;;;;;;;24.63;15.57;;;;;;;6.61;77.71;102394.63;4981839;28;20125;-86
2022/04/27 06:26:05;;;;;;;22.40;15.23;;;;;;;6.76;77.18;102379.47;4976790;28;20026;-87
2022/04/27 06:28:31;;;;;;;22.48;15.27;;;;;;;6.89;75.90;102370.50;4983261;28;20039;-89
2022/04/27 06:30:56;;;;;;;20.45;15.40;;;;;;;7.02;76.21;102384.47;4980159;28;20069;-86
2022/04/27 06:33:21;;;;;;;22.30;15.60;;;;;;;7.17;75.65;102386.94;4985518;28;20030;-83
2022/04/27 06:35:47;;;;;;;21.70;15.07;;;;;;;7.27;75.26;102393.88;4987493;28;20025;-85
2022/04/27 06:38:12;;;;;;;22.20;15.45;;;;;;;7.46;75.01;102395.41;4982215;28;20034;-85
2022/04/27 06:40:37;;;;;;;19.13;14.20;;;;;;;7.64;74.42;102390.75;4981701;28;20058;-85
2022/04/27 06:43:03;;;;;;;22.75;15.23;;;;;;;7.77;73.51;102383.50;4977379;28;20101;-84
2022/04/27 06:45:28;;;;;;;20.85;13.75;;;;;;;7.97;72.54;102390.25;4962502;28;20030;-84
2022/04/27 06:47:54;;;;;;;18.77;14.75;;;;;;;8.18;72.52;102406.72;4968072;28;20031;-85
2022/04/27 06:50:20;;;;;;;17.98;13.93;;;;;;;8.35;71.21;102407.31;4986350;28;20033;-85
2022/04/27 06:52:48;;;;;;;20.20;14.13;;;;;;;8.62;70.12;102411.34;4975761;28;20043;-85
2022/04/27 06:55:17;;;;;;;21.95;15.38;;;;;;;8.86;70.04;102410.03;4974685;28;20026;-85
2022/04/27 06:57:42;;;;;;;19.65;14.13;;;;;;;9.10;68.31;102397.16;4982561;28;20065;-84
2022/04/27 07:00:08;;;;;;;18.33;12.98;;;;;;;9.45;67.30;102413.25;4979248;28;20030;-84
2022/04/27 07:02:34;;;;;;;17.55;13.95;;;;;;;9.63;66.21;102408.44;4984891;28;20022;-84
2022/04/27 07:05:01;;;;;;;15.65;11.68;;;;;;;9.94;65.90;102412.16;4981825;28;20380;-85
2022/04/27 07:07:29;;;;;;;16.70;11.32;;;;;;;10.21;63.56;102407.97;4986829;28;20046;-85
2022/04/27 07:09:56;;;;;;;18.08;12.23;;;;;;;10.44;63.07;102414.53;4984709;28;20061;-85
2022/04/27 07:12:21;;;;;;;14.13;11.27;;;;;;;10.67;61.43;102420.16;4983884;28;20419;-85
2022/04/27 07:14:48;;;;;;;15.88;12.30;;;;;;;10.82;61.03;102418.84;4973743;28;20088;-85
2022/04/27 07:17:14;;;;;;;15.50;11.73;;;;;;;11.04;60.29;102424.50;4983898;28;20323;-85
2022/04/27 07:19:39;;;;;;;16.55;11.55;;;;;;;11.29;60.19;102422.03;4987231;28;20117;-84
2022/04/27 07:22:05;;;;;;;17.90;11.90;;;;;;;11.57;58.88;102421.19;4980331;28;20113;-85
2022/04/27 07:24:31;;;;;;;18.88;11.68;;;;;;;11.89;58.89;102418.44;4975263;28;20062;-86
2022/04/27 07:26:57;;;;;;;18.00;12.57;;;;;;;12.29;56.66;102430.53;4971637;28;20468;-85
2022/04/27 07:29:22;;;;;;;16.85;9.25;;;;;;;12.48;54.19;102432.59;4980974;28;20266;-85
2022/04/27 07:31:48;;;;;;;12.25;9.35;;;;;;;12.70;53.73;102433.59;4987026;28;20101;-85
2022/04/27 07:34:13;;;;;;;14.90;10.65;;;;;;;13.00;53.70;102433.44;4963289;28;20500;-85
2022/04/27 07:36:38;;;;;;;11.20;9.10;;;;;;;13.20;52.14;102437.13;4977495;28;20137;-84
2022/04/27 07:39:05;;;;;;;11.57;8.40;;;;;;;13.42;50.02;102426.56;4973095;28;20070;-84
2022/04/27 07:41:31;;;;;;;12.07;8.18;;;;;;;13.76;49.76;102435.13;4983745;28;20026;-85
2022/04/27 07:43:56;;;;;;;10.25;7.93;;;;;;;14.15;47.66;102438.00;4989603;28;20038;-84
2022/04/27 07:46:21;;;;;;;11.43;8.00;;;;;;;14.38;46.88;102443.31;4980383;28;20088;-84
2022/04/27 07:48:47;;;;;;;11.45;7.40;;;;;;;14.62;46.19;102438.72;4986983;28;20034;-84
2022/04/27 07:51:12;;;;;;;10.23;7.82;;;;;;;14.84;45.11;102440.50;4994915;28;20022;-85
2022/04/27 07:53:38;;;;;;;8.55;6.60;;;;;;;15.13;44.95;102437.44;4975733;28;20141;-85
2022/04/27 07:56:05;;;;;;;8.13;6.63;;;;;;;15.67;43.95;102445.72;4980129;28;20132;-84
2022/04/27 07:58:31;;;;;;;9.32;5.90;;;;;;;16.16;41.88;102444.25;4978462;28;20027;-83
2022/04/27 08:00:57;;;;;;;10.00;6.03;;;;;;;16.40;40.53;102444.00;4978650;28;20327;-84
2022/04/27 08:03:23;;;;;;;7.22;6.03;;;;;;;16.63;40.71;102448.19;4982645;28;20027;-84
2022/04/27 08:05:48;;;;;;;10.48;6.65;;;;;;;17.05;39.05;102449.63;4982363;28;20076;-86
2022/04/27 08:08:13;;;;;;;10.00;5.68;;;;;;;17.30;37.88;102442.00;4980486;28;20057;-85
2022/04/27 08:10:39;;;;;;;6.22;5.63;;;;;;;17.53;36.98;102450.66;4964739;28;20031;-85
2022/04/27 08:13:04;;;;;;;8.13;6.15;;;;;;;17.87;37.04;102441.63;4969712;28;20050;-84
2022/04/27 08:15:29;;;;;;;6.55;5.28;;;;;;;18.23;36.34;102441.34;4987912;28;20077;-85
2022/04/27 08:18:00;;;;;;;8.95;5.30;;;;;;;18.53;36.25;102451.31;4948097;28;20362;-85
2022/04/27 08:23:13;;;;;;;7.15;5.28;;;;;;;19.14;33.12;102459.31;4981215;28;20050;-84
2022/04/27 08:25:39;;;;;;;5.57;4.95;;;;;;;19.40;33.11;102452.28;4984895;28;20030;-83
2022/04/27 08:28:06;;;;;;;6.07;4.47;;;;;;;19.46;31.91;102456.44;4987839;28;20065;-84
2022/04/27 08:30:36;;;;;;;6.60;4.93;;;;;;;19.16;32.47;102470.00;4936546;28;20128;-84
2022/04/27 08:33:04;;;;;;;7.60;5.13;;;;;;;19.53;31.34;102451.53;4964580;28;20084;-84
2022/04/27 08:35:31;;;;;;;7.22;4.90;;;;;;;20.30;31.71;102456.41;4963394;28;20026;-84
2022/04/27 08:37:57;;;;;;;7.43;4.40;;;;;;;20.52;29.84;102452.28;4973320;28;20062;-84
2022/04/27 08:40:24;;;;;;;6.03;4.10;;;;;;;21.14;30.64;102455.22;4981927;28;20030;-85
2022/04/27 08:42:50;;;;;;;5.57;3.92;;;;;;;21.49;28.51;102451.91;4977109;28;20220;-84
2022/04/27 08:45:16;;;;;;;6.00;3.75;;;;;;;21.58;28.07;102462.94;4984632;28;20101;-85
2022/04/27 08:47:43;;;;;;;6.72;3.75;;;;;;;21.71;28.02;102464.78;4977349;28;20035;-85
2022/04/27 08:50:18;;;;;;;5.32;4.32;;;;;;;21.81;28.37;102461.25;4986694;28;20056;-85
2022/04/27 08:52:45;;;;;;;6.95;4.60;;;;;;;22.01;27.29;102462.53;4985658;28;20487;-85
2022/04/27 08:55:11;;;;;;;5.25;3.90;;;;;;;21.77;26.17;102473.31;4990240;28;20022;-84
2022/04/27 08:57:37;;;;;;;5.53;3.83;;;;;;;21.67;26.32;102468.69;4974619;28;20030;-85
2022/04/27 09:00:08;;;;;;;6.45;3.28;;;;;;;21.76;26.86;102466.16;4975725;28;20043;-85
2022/04/27 09:02:33;;;;;;;4.45;3.40;;;;;;;22.24;25.86;102469.00;4981764;28;20050;-84
2022/04/27 09:05:13;;;;;;;4.85;3.92;;;;;;;22.55;26.76;102469.38;4979297;28;20031;-83
2022/04/27 09:07:44;;;;;;;6.10;4.53;;;;;;;22.66;25.86;102463.13;4974463;28;20033;-85
2022/04/27 09:10:11;;;;;;;7.00;4.35;;;;;;;23.16;24.37;102459.25;4982636;28;20053;-84
2022/04/27 09:12:50;;;;;;;6.88;4.35;;;;;;;23.51;25.62;102470.03;4979632;28;20150;-84
2022/04/27 09:15:18;;;;;;;7.10;4.50;;;;;;;23.90;24.29;102459.66;4979446;28;20106;-85
2022/04/27 09:20:46;;;;;;;9.38;6.97;;;;;;;25.06;22.76;102470.75;4983633;28;20197;-85
2022/04/27 09:23:38;;;;;;;7.97;4.32;;;;;;;25.48;24.52;102466.16;4987971;28;20026;-85
2022/04/27 09:26:22;;;;;;;7.15;4.13;;;;;;;25.24;24.06;102471.03;4977589;28;20575;-85
2022/04/27 09:28:49;;;;;;;7.78;4.57;;;;;;;25.16;22.52;102466.25;4952397;28;20063;-86
2022/04/27 09:31:30;;;;;;;4.85;4.13;;;;;;;25.16;23.70;102473.56;4952643;28;20025;-85
2022/04/27 09:34:03;;;;;;;6.43;4.25;;;;;;;24.97;23.68;102479.72;4946760;28;20027;-86
2022/04/27 09:36:29;;;;;;;7.70;4.75;;;;;;;25.39;22.15;102475.16;4944725;28;20082;-85
2022/04/27 09:38:57;;;;;;;6.25;4.70;;;;;;;25.08;21.65;102476.91;4949193;28;20035;-86
2022/04/27 09:41:43;;;;;;;5.32;3.97;;;;;;;25.58;23.61;102466.19;4950021;28;20023;-85
2022/04/27 09:44:28;;;;;;;36.78;24.52;;;;;;;25.83;23.11;102467.59;4937499;28;20521;-86
2022/04/27 09:46:54;;;;;;;6.55;5.20;;;;;;;26.23;21.15;102467.56;4941343;28;20102;-86
2022/04/27 09:49:20;;;;;;;7.13;4.95;;;;;;;26.52;20.29;102469.50;4943213;28;20042;-86
2022/04/27 09:51:50;;;;;;;7.80;5.15;;;;;;;26.37;20.34;102473.63;4936878;28;20378;-86
2022/04/27 09:54:20;;;;;;;7.75;5.70;;;;;;;26.35;21.04;102465.59;4950096;28;20027;-85
2022/04/27 09:56:58;;;;;;;8.20;4.97;;;;;;;26.98;20.99;102474.22;4938185;28;20035;-84
2022/04/27 09:59:31;;;;;;;8.68;5.65;;;;;;;27.46;20.37;102475.13;4936263;28;20370;-84
2022/04/27 10:02:29;;;;;;;6.85;5.90;;;;;;;28.01;20.07;102475.22;4941853;29;20135;-83
2022/04/27 10:04:56;;;;;;;7.15;5.25;;;;;;;27.59;18.94;102480.25;4949503;28;20046;-84
2022/04/27 10:07:23;;;;;;;7.25;6.22;;;;;;;28.10;18.29;102470.69;4944680;28;20035;-84
2022/04/27 10:09:52;;;;;;;9.52;6.40;;;;;;;28.02;17.51;102465.97;4944286;28;20468;-84
2022/04/27 10:12:17;;;;;;;9.20;6.53;;;;;;;28.50;17.93;102471.13;4934510;28;20039;-84
2022/04/27 10:14:44;;;;;;;10.05;6.55;;;;;;;28.71;17.89;102470.81;4936865;29;20036;-84
2022/04/27 10:17:11;;;;;;;8.10;6.22;;;;;;;28.83;18.03;102465.94;4947157;29;20366;-85
2022/04/27 10:19:42;;;;;;;7.50;6.70;;;;;;;28.84;17.29;102470.41;4943708;28;20031;-86
2022/04/27 10:22:24;;;;;;;8.38;6.70;;;;;;;28.38;19.36;102466.91;4946152;29;20386;-84
2022/04/27 10:24:49;;;;;;;7.88;7.05;;;;;;;27.82;18.26;102464.38;4947900;28;20031;-83
2022/04/27 10:27:22;;;;;;;8.52;7.00;;;;;;;27.44;19.16;102466.22;4965654;28;20050;-84
2022/04/27 10:30:02;;;;;;;8.32;7.40;;;;;;;27.55;19.01;102466.06;4985605;28;20034;-84
2022/04/27 10:32:37;;;;;;;9.15;7.13;;;;;;;27.90;19.46;102459.00;4953568;28;20115;-84
2022/04/27 10:35:11;;;;;;;9.93;7.10;;;;;;;29.22;18.95;102466.47;4983648;28;20046;-84
2022/04/27 10:37:45;;;;;;;8.90;6.70;;;;;;;29.23;17.99;102461.81;4983671;28;20498;-84
2022/04/27 10:40:34;;;;;;;7.88;7.07;;;;;;;29.17;18.41;102468.78;4978516;28;20096;-85
2022/04/27 10:43:11;;;;;;;8.02;7.22;;;;;;;29.35;18.19;102467.91;4985012;28;20027;-84
2022/04/27 10:45:42;;;;;;;8.77;6.72;;;;;;;29.80;17.61;102455.78;4984708;28;20041;-84
2022/04/27 10:48:20;;;;;;;7.65;6.85;;;;;;;30.04;17.22;102455.88;4984837;28;20026;-84
2022/04/27 10:51:03;;;;;;;9.02;7.72;;;;;;;30.37;17.42;102458.72;4973825;28;20129;-84
2022/04/27 10:53:37;;;;;;;;;;;;;;;31.96;17.75;102449.72;4982804;28;20064;-85
2022/04/27 10:56:03;;;;;;;7.97;7.18;;;;;;;31.09;15.54;102450.66;4984134;28;20448;-86
2022/04/27 10:58:33;;;;;;;10.07;7.40;;;;;;;30.52;15.83;102455.16;4980293;28;20034;-85
2022/04/27 11:00:58;;;;;;;7.95;6.95;;;;;;;30.45;16.18;102445.00;4978184;28;20030;-85
2022/04/27 11:03:41;;;;;;;8.50;7.18;;;;;;;29.99;17.53;102450.03;4987754;28;20030;-85
2022/04/27 11:06:08;;;;;;;8.20;7.43;;;;;;;29.33;16.72;102459.81;4984530;28;20033;-84
2022/04/27 11:08:42;;;;;;;8.73;7.10;;;;;;;29.53;17.34;102465.94;4965895;28;20436;-84
2022/04/27 11:11:09;;;;;;;8.63;7.72;;;;;;;30.39;16.50;102449.28;4986222;28;20493;-84
2022/04/27 11:13:36;;;;;;;9.00;7.43;;;;;;;30.88;16.11;102456.72;4983962;28;20401;-85
2022/04/27 11:16:08;;;;;;;12.90;10.52;;;;;;;30.40;16.89;102461.13;4974435;28;20042;-85
2022/04/27 11:18:49;;;;;;;9.50;7.10;;;;;;;31.01;16.88;102457.88;4975458;28;20029;-86
2022/04/27 11:21:17;;;;;;;9.25;8.23;;;;;;;31.04;15.71;102448.44;4976945;28;20036;-85
2022/04/27 11:23:42;;;;;;;9.30;8.05;;;;;;;31.79;15.53;102442.56;4984779;28;20033;-86
2022/04/27 11:26:08;;;;;;;12.25;8.70;;;;;;;32.33;14.91;102448.13;4995648;28;20030;-85
2022/04/27 11:28:37;;;;;;;13.27;7.50;;;;;;;33.17;14.89;102451.72;4973507;28;20085;-84
2022/04/27 11:31:02;;;;;;;9.65;7.78;;;;;;;33.45;14.19;102445.59;4980055;28;20062;-85
2022/04/27 11:33:27;;;;;;;9.18;7.97;;;;;;;33.06;13.90;102446.66;4977407;28;20116;-85
2022/04/27 11:35:53;;;;;;;10.98;8.30;;;;;;;32.66;14.49;102446.00;4980903;28;20624;-85
2022/04/27 11:38:20;;;;;;;10.57;8.25;;;;;;;32.79;14.29;102450.03;4979815;28;20034;-85